Etusivu
METAR-TAF:

METAR-TAF

Lentoasemat :

Sevillan lentoasema

Sevilla, Espanja

Leveyspiiri: 37-25N, Pituuspiiri: 005-54W, korkeus merenpinnasta: 34 m

Tämänhetkinen sää

Tämä raportti tehtiin 38 minuuttia sitten, kello 22.30 UTC
Tuuli 8 kn pohjoisen/luoteesta, vaihdellen luoteen ja pohjoisen välillä
Lämpötila 24°C
Kosteus 65%
Ilmanpaine 1019 hPa
Näkyvyys 10 km tai enemmän
ei pilviä alle 1500 m:ssä eikä cumulonimbus-pilviä

METAR: LEZL 242230Z 33008KT 310V010 CAVOK 24/17 Q1019 NOSIG

Aika: 01:08 (23:08 UTC)

Sääennuste

Tämä raportti tehtiin 3 tuntia ja 8 minuuttia sitten, kello 20.00 UTC
Ennuste voimassa 24. päivästä klo 21 UTC - 25. päivään klo 21 UTC
Tuuli 8 kn pohjoisesta
Näkyvyys 10 km tai enemmän
ei pilviä alle 1500 m:ssä eikä cumulonimbus-pilviä

TAF: LEZL 242000Z 2421/2521 35008KT CAVOK TX28/2515Z TN17/2506Z

Säähavainnot ja -ennusteet yli 4000 lentoasemalta (METAR- ja TAF-raportit).

Käytössä olevat sääasemat on merkitty karttaan keltaisilla ja punaisilla pisteillä.

Aseta hiiri pisteen päälle nähdäksesi sääaseman nimen.

Klikkaa sitten nähdäksesi säähavainnot ja -ennusteet.

Kartan vaihtaminen: klikkaa mustalla rastilla varustettuja vihreitä pisteitä, niin voit zoomata sisään; viivalla varustettua vihreää pistettä, niin voit zoomata ulos tai vihreitä nuolia, niin pääset viereisille kartoille.


METAR-TAF: